Time;durP1;ratioP1;P1;durP2;ratioP2;P2;SDS_P1;SDS_P2;PMS_P1;PMS_P2;Temp;Humidity;BMP_temperature;BMP_pressure;BME280_temperature;BME280_humidity;BME280_pressure;Samples;Min_cycle;Max_cycle;Signal;HPM_P1;HPM_P2
2021/11/29 00:01:32;;;;;;;11.82;4.70;;;;;;;;;;5085771;28;20025;-49
2021/11/29 00:03:58;;;;;;;11.20;4.35;;;;;;;;;;5085756;28;20032;-48
2021/11/29 00:06:25;;;;;;;16.67;6.50;;;;;;;;;;5064794;28;20031;-49
2021/11/29 00:08:51;;;;;;;15.38;6.07;;;;;;;;;;5084030;28;20028;-52
2021/11/29 00:11:17;;;;;;;20.08;6.97;;;;;;;;;;5082114;28;20375;-52
2021/11/29 00:13:44;;;;;;;18.77;6.47;;;;;;;;;;5080354;28;20028;-51
2021/11/29 00:16:11;;;;;;;19.65;7.30;;;;;;;;;;5083887;28;20054;-52
2021/11/29 00:18:38;;;;;;;18.00;6.18;;;;;;;;;;5085357;28;20031;-52
2021/11/29 00:21:05;;;;;;;24.92;8.80;;;;;;;;;;5085454;28;20160;-50
2021/11/29 00:23:31;;;;;;;24.42;7.65;;;;;;;;;;5083655;28;20107;-48
2021/11/29 00:25:58;;;;;;;22.10;7.32;;;;;;;;;;5085328;28;20107;-48
2021/11/29 00:28:24;;;;;;;16.45;6.20;;;;;;;;;;5066066;28;20130;-50
2021/11/29 00:30:50;;;;;;;24.00;7.78;;;;;;;;;;5084754;28;20031;-52
2021/11/29 00:33:16;;;;;;;25.20;8.63;;;;;;;;;;5084858;28;20463;-49
2021/11/29 00:35:42;;;;;;;24.77;8.60;;;;;;;;;;5083377;28;20024;-52
2021/11/29 00:38:10;;;;;;;25.30;7.47;;;;;;;;;;5085140;28;20039;-53
2021/11/29 00:40:37;;;;;;;26.77;8.32;;;;;;;;;;5084957;28;20406;-50
2021/11/29 00:43:03;;;;;;;22.17;7.45;;;;;;;;;;5085469;28;20116;-53
2021/11/29 00:45:31;;;;;;;19.40;6.65;;;;;;;;;;5083741;28;20103;-51
2021/11/29 00:47:57;;;;;;;18.98;6.85;;;;;;;;;;5084772;28;20542;-49
2021/11/29 00:50:23;;;;;;;15.95;5.65;;;;;;;;;;5084488;28;20620;-51
2021/11/29 00:52:49;;;;;;;12.35;4.63;;;;;;;;;;5084983;28;20036;-51
2021/11/29 00:55:16;;;;;;;9.85;3.92;;;;;;;;;;5081627;28;20482;-49
2021/11/29 00:57:42;;;;;;;9.60;3.40;;;;;;;;;;5084543;28;20028;-51
2021/11/29 01:00:13;;;;;;;9.20;3.65;;;;;;;;;;5084695;28;20114;-50
2021/11/29 01:02:40;;;;;;;8.90;3.10;;;;;;;;;;5079626;28;20024;-48
2021/11/29 01:05:06;;;;;;;5.90;2.38;;;;;;;;;;5082033;28;20059;-50
2021/11/29 01:07:32;;;;;;;6.50;2.75;;;;;;;;;;5085059;28;20032;-49
2021/11/29 01:09:59;;;;;;;3.65;1.88;;;;;;;;;;5085293;28;20020;-50
2021/11/29 01:12:25;;;;;;;5.15;2.08;;;;;;;;;;5084490;28;20028;-49
2021/11/29 01:14:53;;;;;;;6.22;2.28;;;;;;;;;;5082932;28;20086;-50
2021/11/29 01:17:19;;;;;;;9.07;3.50;;;;;;;;;;5084070;28;20059;-49
2021/11/29 01:19:45;;;;;;;11.85;3.92;;;;;;;;;;5084500;28;20032;-52
2021/11/29 01:22:12;;;;;;;13.70;5.30;;;;;;;;;;5083139;28;20074;-51
2021/11/29 01:24:38;;;;;;;14.80;4.57;;;;;;;;;;5083872;28;20418;-53
2021/11/29 01:27:04;;;;;;;14.32;4.68;;;;;;;;;;5084664;28;20028;-53
2021/11/29 01:29:30;;;;;;;9.57;4.00;;;;;;;;;;5084780;28;20024;-52
2021/11/29 01:31:57;;;;;;;7.03;2.60;;;;;;;;;;5084529;28;20598;-50
2021/11/29 01:34:24;;;;;;;6.65;2.72;;;;;;;;;;5080900;28;20028;-51
2021/11/29 01:36:50;;;;;;;6.03;2.35;;;;;;;;;;5084627;28;20032;-53
2021/11/29 01:39:16;;;;;;;6.15;2.53;;;;;;;;;;5084006;28;20423;-54
2021/11/29 01:41:43;;;;;;;6.80;2.47;;;;;;;;;;5087963;28;20059;-53
2021/11/29 01:44:11;;;;;;;8.25;2.65;;;;;;;;;;5086679;28;20394;-51
2021/11/29 01:46:37;;;;;;;6.40;3.03;;;;;;;;;;5086500;28;20063;-49
2021/11/29 01:49:04;;;;;;;6.47;2.90;;;;;;;;;;5088826;28;20020;-51
2021/11/29 01:51:30;;;;;;;12.80;4.60;;;;;;;;;;5088395;28;20532;-51
2021/11/29 01:53:56;;;;;;;9.27;3.47;;;;;;;;;;5068871;28;20032;-53
2021/11/29 01:56:22;;;;;;;7.82;3.10;;;;;;;;;;5087757;28;20028;-53
2021/11/29 01:58:48;;;;;;;6.43;2.60;;;;;;;;;;5087976;28;20506;-51
2021/11/29 02:01:19;;;;;;;6.25;2.92;;;;;;;;;;5087876;28;20032;-53
2021/11/29 02:03:47;;;;;;;4.93;2.53;;;;;;;;;;5084476;28;20032;-53
2021/11/29 02:06:15;;;;;;;5.15;2.15;;;;;;;;;;5087141;28;20035;-51
2021/11/29 02:08:41;;;;;;;11.75;4.18;;;;;;;;;;5088068;28;20024;-53
2021/11/29 02:11:08;;;;;;;15.38;4.95;;;;;;;;;;5087922;28;20032;-52
2021/11/29 02:13:34;;;;;;;11.02;4.38;;;;;;;;;;5087600;28;20422;-52
2021/11/29 02:16:00;;;;;;;8.77;3.92;;;;;;;;;;5087023;28;20032;-50
2021/11/29 02:18:28;;;;;;;5.68;2.75;;;;;;;;;;5087287;28;20348;-49
2021/11/29 02:21:09;;;;;;;6.97;3.03;;;;;;;;;;5086360;28;20039;-52
2021/11/29 02:23:39;;;;;;;5.88;2.80;;;;;;;;;;5087758;28;20035;-50
2021/11/29 02:26:06;;;;;;;4.88;2.38;;;;;;;;;;5086301;28;20084;-52
2021/11/29 02:28:33;;;;;;;6.53;3.13;;;;;;;;;;5079157;28;20063;-52
2021/11/29 02:30:59;;;;;;;4.38;2.20;;;;;;;;;;5067381;28;20028;-50
2021/11/29 02:33:28;;;;;;;3.17;1.92;;;;;;;;;;5067009;28;20029;-53
2021/11/29 02:35:54;;;;;;;4.15;1.63;;;;;;;;;;5065738;28;20033;-50
2021/11/29 02:38:21;;;;;;;2.60;1.40;;;;;;;;;;5066777;28;20085;-52
2021/11/29 02:40:47;;;;;;;1.75;1.40;;;;;;;;;;5066807;28;20036;-51
2021/11/29 02:43:14;;;;;;;2.60;1.15;;;;;;;;;;5067187;28;20031;-50
2021/11/29 02:45:41;;;;;;;4.18;1.27;;;;;;;;;;5066278;28;20427;-53
2021/11/29 02:48:08;;;;;;;1.55;1.10;;;;;;;;;;5066805;28;20029;-53
2021/11/29 02:50:35;;;;;;;2.00;1.20;;;;;;;;;;5067424;28;20472;-52
2021/11/29 02:53:01;;;;;;;2.80;1.67;;;;;;;;;;5066245;28;20028;-49
2021/11/29 02:55:27;;;;;;;1.52;1.20;;;;;;;;;;5065519;28;20028;-53
2021/11/29 02:57:53;;;;;;;2.78;1.60;;;;;;;;;;5048639;28;20434;-52
2021/11/29 03:00:20;;;;;;;3.10;2.08;;;;;;;;;;5066639;28;20111;-51
2021/11/29 03:03:01;;;;;;;4.00;1.88;;;;;;;;;;5065227;28;20035;-53
2021/11/29 03:05:27;;;;;;;2.83;1.90;;;;;;;;;;5065837;28;20039;-51
2021/11/29 03:07:53;;;;;;;2.25;1.52;;;;;;;;;;5065700;28;20036;-52
2021/11/29 03:10:19;;;;;;;2.67;1.40;;;;;;;;;;5066408;28;20036;-49
2021/11/29 03:12:46;;;;;;;1.73;1.15;;;;;;;;;;5066591;28;20034;-51
2021/11/29 03:15:12;;;;;;;1.65;1.00;;;;;;;;;;5066641;28;20494;-51
2021/11/29 03:17:38;;;;;;;0.88;0.88;;;;;;;;;;5065311;28;20032;-53
2021/11/29 03:20:04;;;;;;;1.75;1.00;;;;;;;;;;5067067;28;20031;-49
2021/11/29 03:22:30;;;;;;;2.30;1.08;;;;;;;;;;5066727;28;20033;-50
2021/11/29 03:24:56;;;;;;;2.83;1.23;;;;;;;;;;5065418;28;20055;-51
2021/11/29 03:27:22;;;;;;;1.75;1.02;;;;;;;;;;5064761;28;20032;-47
2021/11/29 03:29:50;;;;;;;2.67;1.58;;;;;;;;;;5066219;28;20028;-50
2021/11/29 03:32:18;;;;;;;2.55;1.73;;;;;;;;;;5064581;28;20111;-50
2021/11/29 03:34:44;;;;;;;2.00;1.40;;;;;;;;;;5065405;28;20035;-53
2021/11/29 03:37:10;;;;;;;2.85;1.70;;;;;;;;;;5064315;28;20032;-53
2021/11/29 03:39:36;;;;;;;3.28;2.03;;;;;;;;;;5065850;28;20032;-53
2021/11/29 03:42:05;;;;;;;1.95;1.38;;;;;;;;;;5066493;28;20036;-51
2021/11/29 03:44:31;;;;;;;1.60;1.25;;;;;;;;;;5066515;28;20030;-52
2021/11/29 03:46:57;;;;;;;2.40;1.83;;;;;;;;;;5064528;28;20040;-51
2021/11/29 03:49:24;;;;;;;2.20;1.40;;;;;;;;;;5063012;28;20244;-50
2021/11/29 03:51:50;;;;;;;1.05;0.93;;;;;;;;;;5065909;28;20021;-51
2021/11/29 03:54:17;;;;;;;2.42;1.13;;;;;;;;;;5065798;28;20032;-50
2021/11/29 03:56:43;;;;;;;1.33;1.13;;;;;;;;;;5063257;28;20029;-52
2021/11/29 03:59:09;;;;;;;1.25;1.10;;;;;;;;;;5064965;28;20021;-52
2021/11/29 04:01:35;;;;;;;1.10;0.80;;;;;;;;;;5065154;28;20032;-52
2021/11/29 04:04:02;;;;;;;1.27;1.00;;;;;;;;;;5066013;28;20032;-51
2021/11/29 04:06:28;;;;;;;1.95;0.90;;;;;;;;;;5065110;28;20107;-50
2021/11/29 04:08:54;;;;;;;0.80;0.70;;;;;;;;;;5065234;28;20157;-51
2021/11/29 04:11:20;;;;;;;0.93;0.60;;;;;;;;;;5063879;28;20036;-52
2021/11/29 04:13:47;;;;;;;0.93;0.70;;;;;;;;;;5065432;28;20048;-49
2021/11/29 04:16:15;;;;;;;0.90;0.70;;;;;;;;;;5064999;28;20059;-52
2021/11/29 04:18:42;;;;;;;0.90;0.70;;;;;;;;;;5063548;28;20031;-50
2021/11/29 04:21:09;;;;;;;0.63;0.60;;;;;;;;;;5064383;28;20044;-51
2021/11/29 04:23:36;;;;;;;0.57;0.55;;;;;;;;;;5065485;28;20032;-52
2021/11/29 04:26:02;;;;;;;1.52;1.00;;;;;;;;;;5065669;28;20029;-52
2021/11/29 04:28:29;;;;;;;1.52;0.90;;;;;;;;;;5065054;28;20020;-52
2021/11/29 04:30:56;;;;;;;1.50;0.68;;;;;;;;;;5063652;28;20029;-52
2021/11/29 04:33:23;;;;;;;1.60;0.57;;;;;;;;;;5064638;28;20479;-51
2021/11/29 04:35:49;;;;;;;1.75;0.70;;;;;;;;;;5065057;28;20459;-49
2021/11/29 04:38:16;;;;;;;1.48;0.60;;;;;;;;;;5064843;28;20020;-49
2021/11/29 04:40:42;;;;;;;0.60;0.60;;;;;;;;;;5064131;28;20028;-49
2021/11/29 04:43:08;;;;;;;0.70;0.70;;;;;;;;;;5065055;28;20594;-48
2021/11/29 04:45:34;;;;;;;0.68;0.60;;;;;;;;;;5065410;28;20103;-50
2021/11/29 04:48:01;;;;;;;0.88;0.65;;;;;;;;;;5063859;28;20036;-52
2021/11/29 04:50:27;;;;;;;0.70;0.50;;;;;;;;;;5063165;28;20522;-49
2021/11/29 04:52:53;;;;;;;0.52;0.52;;;;;;;;;;5064940;28;20434;-52
2021/11/29 04:55:19;;;;;;;1.52;0.73;;;;;;;;;;5064730;28;20025;-50
2021/11/29 04:57:45;;;;;;;0.60;0.60;;;;;;;;;;5064049;28;20023;-51
2021/11/29 05:00:12;;;;;;;2.13;0.90;;;;;;;;;;5063264;28;20095;-52
2021/11/29 05:02:39;;;;;;;3.13;1.00;;;;;;;;;;5064430;28;20025;-51
2021/11/29 05:05:05;;;;;;;1.17;0.90;;;;;;;;;;5064813;28;20036;-51
2021/11/29 05:07:31;;;;;;;1.08;0.90;;;;;;;;;;5064862;28;20033;-51
2021/11/29 05:09:58;;;;;;;1.35;1.10;;;;;;;;;;5063307;28;20033;-50
2021/11/29 05:12:26;;;;;;;0.93;0.70;;;;;;;;;;5064297;28;20033;-51
2021/11/29 05:14:53;;;;;;;0.60;0.60;;;;;;;;;;5064109;28;20389;-53
2021/11/29 05:17:19;;;;;;;1.05;0.95;;;;;;;;;;5064156;28;20455;-50
2021/11/29 05:19:47;;;;;;;1.40;0.93;;;;;;;;;;5062343;28;20055;-50
2021/11/29 05:22:13;;;;;;;1.08;0.82;;;;;;;;;;5064303;28;20103;-52
2021/11/29 05:24:39;;;;;;;0.95;0.88;;;;;;;;;;5064464;28;20081;-49
2021/11/29 05:27:05;;;;;;;3.10;1.20;;;;;;;;;;5064717;28;20356;-53
2021/11/29 05:29:31;;;;;;;3.65;2.13;;;;;;;;;;5063628;28;20036;-53
2021/11/29 05:31:57;;;;;;;3.00;2.05;;;;;;;;;;5062012;28;20056;-50
2021/11/29 05:34:24;;;;;;;4.78;2.35;;;;;;;;;;5060214;28;20029;-49
2021/11/29 05:36:51;;;;;;;6.68;3.50;;;;;;;;;;5063831;28;20013;-51
2021/11/29 05:39:18;;;;;;;10.18;4.97;;;;;;;;;;5062456;28;20051;-54
2021/11/29 05:41:46;;;;;;;16.35;7.07;;;;;;;;;;5063436;28;20396;-52
2021/11/29 05:44:13;;;;;;;18.15;6.80;;;;;;;;;;5062375;28;20446;-51
2021/11/29 05:46:40;;;;;;;14.82;6.88;;;;;;;;;;5063776;28;20025;-51
2021/11/29 05:49:07;;;;;;;12.65;5.90;;;;;;;;;;5064556;28;20518;-53
2021/11/29 05:51:34;;;;;;;12.40;5.25;;;;;;;;;;5064454;28;20398;-51
2021/11/29 05:54:01;;;;;;;8.35;4.40;;;;;;;;;;5062977;28;20039;-52
2021/11/29 05:56:27;;;;;;;9.73;5.28;;;;;;;;;;5063529;28;20025;-51
2021/11/29 05:58:53;;;;;;;6.53;3.83;;;;;;;;;;5064516;28;20107;-53
2021/11/29 06:01:22;;;;;;;5.25;3.10;;;;;;;;;;5063524;28;20530;-54
2021/11/29 06:03:50;;;;;;;5.80;3.08;;;;;;;;;;5062763;28;21786;-50
2021/11/29 06:06:16;;;;;;;6.15;3.28;;;;;;;;;;5063209;28;20051;-52
2021/11/29 06:08:42;;;;;;;4.35;2.88;;;;;;;;;;5063822;28;20056;-53
2021/11/29 06:11:08;;;;;;;5.03;2.50;;;;;;;;;;5063172;28;20398;-52
2021/11/29 06:13:35;;;;;;;3.38;2.38;;;;;;;;;;5064226;28;20024;-52
2021/11/29 06:16:02;;;;;;;5.07;2.92;;;;;;;;;;5062037;28;20056;-52
2021/11/29 06:18:28;;;;;;;4.57;2.58;;;;;;;;;;5063427;28;20107;-52
2021/11/29 06:20:56;;;;;;;4.47;2.40;;;;;;;;;;5064051;28;20569;-50
2021/11/29 06:23:22;;;;;;;3.25;2.17;;;;;;;;;;5063652;28;20039;-50
2021/11/29 06:25:49;;;;;;;2.50;1.75;;;;;;;;;;5062589;28;20046;-52
2021/11/29 06:28:15;;;;;;;2.45;1.70;;;;;;;;;;5066088;28;20240;-50
2021/11/29 06:30:42;;;;;;;5.80;2.72;;;;;;;;;;5067748;28;20025;-54
2021/11/29 06:33:09;;;;;;;7.50;3.45;;;;;;;;;;5066282;28;20060;-52
2021/11/29 06:35:36;;;;;;;5.90;3.75;;;;;;;;;;5066489;28;20028;-52
2021/11/29 06:38:04;;;;;;;7.40;4.53;;;;;;;;;;5067610;28;20071;-51
2021/11/29 06:40:31;;;;;;;9.90;5.13;;;;;;;;;;5066781;28;20511;-54
2021/11/29 06:42:57;;;;;;;8.88;4.85;;;;;;;;;;5067503;28;20723;-53
2021/11/29 06:45:24;;;;;;;6.85;3.42;;;;;;;;;;5066133;28;20457;-50
2021/11/29 06:47:51;;;;;;;6.97;3.85;;;;;;;;;;5066806;28;20077;-53
2021/11/29 06:50:19;;;;;;;5.65;3.63;;;;;;;;;;5066884;28;20028;-51
2021/11/29 06:52:46;;;;;;;7.43;3.80;;;;;;;;;;5063941;28;20272;-53
2021/11/29 06:55:14;;;;;;;5.10;2.83;;;;;;;;;;5067018;28;20090;-53
2021/11/29 06:57:41;;;;;;;5.30;2.85;;;;;;;;;;5066641;28;20399;-52
2021/11/29 07:00:07;;;;;;;4.90;2.88;;;;;;;;;;5067231;28;20082;-53
2021/11/29 07:02:34;;;;;;;3.28;2.30;;;;;;;;;;5067202;28;20074;-51
2021/11/29 07:05:01;;;;;;;4.25;2.08;;;;;;;;;;5065155;28;20070;-52
2021/11/29 07:07:28;;;;;;;4.57;2.45;;;;;;;;;;5066357;28;20032;-50
2021/11/29 07:09:54;;;;;;;3.00;2.10;;;;;;;;;;5067097;28;20063;-51
2021/11/29 07:12:21;;;;;;;2.67;2.10;;;;;;;;;;5066853;28;20048;-51
2021/11/29 07:14:47;;;;;;;2.47;1.52;;;;;;;;;;5065562;28;20070;-53
2021/11/29 07:17:13;;;;;;;4.72;1.70;;;;;;;;;;5066259;28;20376;-51
2021/11/29 07:19:39;;;;;;;2.85;1.70;;;;;;;;;;5066344;28;20501;-52
2021/11/29 07:22:06;;;;;;;2.95;1.65;;;;;;;;;;5067243;28;20024;-50
2021/11/29 07:24:32;;;;;;;2.60;1.58;;;;;;;;;;5065417;28;20150;-52
2021/11/29 07:26:59;;;;;;;1.98;1.45;;;;;;;;;;5066235;28;20042;-52
2021/11/29 07:29:25;;;;;;;2.33;1.67;;;;;;;;;;5065917;28;20051;-51
2021/11/29 07:31:51;;;;;;;2.13;1.60;;;;;;;;;;5066156;28;20055;-52
2021/11/29 07:34:17;;;;;;;2.55;2.10;;;;;;;;;;5065387;28;20043;-52
2021/11/29 07:36:43;;;;;;;2.33;1.85;;;;;;;;;;5066234;28;20380;-51
2021/11/29 07:39:12;;;;;;;3.15;2.25;;;;;;;;;;5065958;28;20039;-50
2021/11/29 07:41:40;;;;;;;4.18;2.50;;;;;;;;;;5064929;28;20032;-51
2021/11/29 07:44:06;;;;;;;5.82;2.97;;;;;;;;;;5065583;28;20078;-52
2021/11/29 07:46:32;;;;;;;4.20;2.25;;;;;;;;;;5065703;28;20032;-51
2021/11/29 07:49:00;;;;;;;5.28;2.35;;;;;;;;;;5065932;28;20036;-51
2021/11/29 07:51:26;;;;;;;4.38;2.47;;;;;;;;;;5065657;28;20036;-49
2021/11/29 07:53:53;;;;;;;3.35;2.22;;;;;;;;;;5064460;28;20024;-53
2021/11/29 07:56:19;;;;;;;4.47;2.83;;;;;;;;;;5065669;28;20028;-52
2021/11/29 07:58:46;;;;;;;3.47;2.50;;;;;;;;;;5066193;28;20024;-53
2021/11/29 08:01:12;;;;;;;3.92;2.25;;;;;;;;;;5061673;28;20028;-51
2021/11/29 08:03:38;;;;;;;4.43;2.30;;;;;;;;;;5066858;28;20584;-53
2021/11/29 08:06:05;;;;;;;6.70;2.90;;;;;;;;;;5065790;28;20024;-52
2021/11/29 08:08:31;;;;;;;5.40;2.75;;;;;;;;;;5061584;28;20073;-50
2021/11/29 08:10:57;;;;;;;6.20;2.40;;;;;;;;;;5066863;28;20116;-53
2021/11/29 08:13:23;;;;;;;4.60;2.20;;;;;;;;;;5065277;28;20035;-51
2021/11/29 08:15:49;;;;;;;8.77;3.15;;;;;;;;;;5065949;28;20531;-51
2021/11/29 08:18:15;;;;;;;11.27;4.70;;;;;;;;;;5045018;28;20415;-53
2021/11/29 08:20:42;;;;;;;18.45;5.80;;;;;;;;;;5066129;28;20032;-52
2021/11/29 08:23:09;;;;;;;12.10;5.45;;;;;;;;;;5066950;28;20071;-52
2021/11/29 08:25:36;;;;;;;18.85;5.93;;;;;;;;;;5065853;28;20033;-52
2021/11/29 08:28:03;;;;;;;14.02;5.25;;;;;;;;;;5066102;28;20075;-52
2021/11/29 08:30:29;;;;;;;14.48;4.72;;;;;;;;;;5063709;28;20407;-53
2021/11/29 08:32:55;;;;;;;16.15;5.65;;;;;;;;;;5065370;28;20028;-53
2021/11/29 08:35:21;;;;;;;12.93;5.07;;;;;;;;;;5064723;28;20025;-53
2021/11/29 08:37:52;;;;;;;13.07;4.80;;;;;;;;;;5054365;28;20109;-49
2021/11/29 08:40:19;;;;;;;18.48;6.40;;;;;;;;;;5066124;28;20032;-51
2021/11/29 08:42:46;;;;;;;17.35;6.10;;;;;;;;;;5064268;28;20025;-50
2021/11/29 08:45:12;;;;;;;12.25;4.85;;;;;;;;;;5065674;28;20060;-52
2021/11/29 08:47:38;;;;;;;13.05;4.97;;;;;;;;;;5066560;28;20028;-53
2021/11/29 08:50:05;;;;;;;13.00;4.93;;;;;;;;;;5066447;28;20399;-49
2021/11/29 08:52:34;;;;;;;9.70;4.13;;;;;;;;;;5065382;28;20020;-50
2021/11/29 08:55:02;;;;;;;9.27;3.92;;;;;;;;;;5065751;28;20024;-51
2021/11/29 08:57:29;;;;;;;9.73;3.90;;;;;;;;;;5061410;28;20474;-49
2021/11/29 08:59:56;;;;;;;10.75;4.32;;;;;;;;;;5061476;28;20060;-50
2021/11/29 09:02:22;;;;;;;7.65;3.88;;;;;;;;;;5046043;28;20025;-49
2021/11/29 09:04:48;;;;;;;10.43;4.15;;;;;;;;;;5063054;28;20032;-50
2021/11/29 09:07:14;;;;;;;8.57;3.90;;;;;;;;;;5062704;28;20025;-52
2021/11/29 09:09:40;;;;;;;8.88;4.53;;;;;;;;;;5063766;28;20103;-49
2021/11/29 09:12:08;;;;;;;8.15;3.70;;;;;;;;;;5063933;28;20529;-50
2021/11/29 09:14:35;;;;;;;8.68;3.85;;;;;;;;;;5064810;28;20490;-49
2021/11/29 09:17:01;;;;;;;9.30;4.20;;;;;;;;;;5063469;28;20028;-50
2021/11/29 09:19:28;;;;;;;7.45;3.72;;;;;;;;;;5074934;28;20047;-51
2021/11/29 09:21:55;;;;;;;7.95;3.80;;;;;;;;;;5076688;28;20024;-51
2021/11/29 09:24:22;;;;;;;7.25;3.75;;;;;;;;;;5067707;28;20025;-52
2021/11/29 09:26:48;;;;;;;8.55;3.75;;;;;;;;;;5063310;28;20102;-49
2021/11/29 09:29:15;;;;;;;6.93;3.88;;;;;;;;;;5061368;28;20024;-52
2021/11/29 09:31:41;;;;;;;5.72;3.45;;;;;;;;;;5069453;28;20243;-49
2021/11/29 09:34:07;;;;;;;7.35;3.70;;;;;;;;;;5040593;28;20032;-53
2021/11/29 09:36:34;;;;;;;6.25;3.60;;;;;;;;;;5062296;28;20411;-50
2021/11/29 09:39:00;;;;;;;5.38;3.60;;;;;;;;;;5063933;28;20530;-52
2021/11/29 09:41:27;;;;;;;6.28;3.90;;;;;;;;;;5069757;28;20576;-52
2021/11/29 09:43:54;;;;;;;5.78;3.53;;;;;;;;;;5064610;28;20039;-49
2021/11/29 09:46:22;;;;;;;5.88;3.65;;;;;;;;;;5064118;28;20107;-52
2021/11/29 09:48:48;;;;;;;5.70;3.90;;;;;;;;;;5063908;28;20029;-52
2021/11/29 09:51:14;;;;;;;7.25;3.92;;;;;;;;;;5063540;28;20032;-51
2021/11/29 09:53:41;;;;;;;7.22;3.70;;;;;;;;;;5064490;28;20447;-53
2021/11/29 09:56:07;;;;;;;5.65;3.08;;;;;;;;;;5066416;28;20270;-52
2021/11/29 09:58:33;;;;;;;5.43;3.50;;;;;;;;;;5065211;28;20028;-51
2021/11/29 10:01:01;;;;;;;5.15;2.88;;;;;;;;;;5070381;28;20056;-51
2021/11/29 10:03:28;;;;;;;5.10;3.38;;;;;;;;;;5072519;28;20108;-52
2021/11/29 10:05:55;;;;;;;5.13;2.88;;;;;;;;;;5051146;28;20036;-51
2021/11/29 10:08:23;;;;;;;5.97;2.90;;;;;;;;;;5071826;28;20028;-50
2021/11/29 10:10:58;;;;;;;5.43;3.88;;;;;;;;;;5084220;28;20028;-52
2021/11/29 10:13:26;;;;;;;3.97;2.80;;;;;;;;;;5067137;28;20025;-52
2021/11/29 10:15:52;;;;;;;5.03;2.92;;;;;;;;;;5078857;28;20056;-52
2021/11/29 10:18:21;;;;;;;4.32;2.78;;;;;;;;;;5076870;28;20055;-53
2021/11/29 10:20:56;;;;;;;11.98;5.10;;;;;;;;;;5067752;28;20103;-50
2021/11/29 10:23:23;;;;;;;12.55;6.07;;;;;;;;;;5066859;28;20028;-51
2021/11/29 10:25:50;;;;;;;8.82;4.75;;;;;;;;;;5055786;28;20039;-50
2021/11/29 10:28:33;;;;;;;6.20;3.72;;;;;;;;;;5067560;28;20028;-51
2021/11/29 10:31:13;;;;;;;9.63;4.60;;;;;;;;;;5068355;28;20131;-53
2021/11/29 10:33:46;;;;;;;7.13;3.60;;;;;;;;;;5065811;28;20020;-52
2021/11/29 10:36:14;;;;;;;7.00;3.17;;;;;;;;;;5069471;28;20025;-53
2021/11/29 10:38:41;;;;;;;7.07;3.53;;;;;;;;;;5068686;28;20039;-50
2021/11/29 10:41:07;;;;;;;6.72;3.35;;;;;;;;;;5069072;28;20072;-52
2021/11/29 10:43:40;;;;;;;4.18;2.60;;;;;;;;;;5068936;28;20431;-48
2021/11/29 10:46:19;;;;;;;4.15;2.45;;;;;;;;;;5069169;28;20055;-49
2021/11/29 10:48:45;;;;;;;7.50;2.67;;;;;;;;;;5068483;28;20048;-51
2021/11/29 10:51:13;;;;;;;8.10;2.72;;;;;;;;;;5068564;28;20020;-53
2021/11/29 10:53:48;;;;;;;6.78;3.10;;;;;;;;;;5071345;28;20398;-51
2021/11/29 10:56:15;;;;;;;9.18;4.07;;;;;;;;;;5068120;28;20881;-53
2021/11/29 10:58:42;;;;;;;6.00;3.38;;;;;;;;;;5068087;28;20021;-51
2021/11/29 11:01:10;;;;;;;6.13;3.20;;;;;;;;;;5068209;28;20051;-52
2021/11/29 11:04:05;;;;;;;9.65;4.00;;;;;;;;;;5068040;28;20394;-53
2021/11/29 11:06:35;;;;;;;10.93;6.90;;;;;;;;;;5045512;28;20045;-52
2021/11/29 11:09:09;;;;;;;9.05;5.65;;;;;;;;;;5067844;28;20028;-53
2021/11/29 11:11:43;;;;;;;7.03;4.20;;;;;;;;;;5069676;28;20017;-53
2021/11/29 11:14:12;;;;;;;8.05;4.72;;;;;;;;;;5062579;28;20040;-51
2021/11/29 11:16:44;;;;;;;6.57;4.40;;;;;;;;;;5066908;28;20566;-52
2021/11/29 11:19:11;;;;;;;6.15;3.58;;;;;;;;;;5064140;28;20033;-53
2021/11/29 11:21:37;;;;;;;3.42;3.10;;;;;;;;;;5069195;28;20214;-54
2021/11/29 11:24:18;;;;;;;4.80;3.25;;;;;;;;;;5063784;28;20043;-51
2021/11/29 11:26:47;;;;;;;3.80;2.90;;;;;;;;;;5066640;28;20036;-53
2021/11/29 11:29:14;;;;;;;4.15;3.03;;;;;;;;;;5050414;28;20483;-51
2021/11/29 11:31:41;;;;;;;6.03;3.83;;;;;;;;;;5059303;28;20040;-53
2021/11/29 11:34:08;;;;;;;8.35;4.07;;;;;;;;;;5066612;28;20027;-51
2021/11/29 11:36:35;;;;;;;7.68;4.57;;;;;;;;;;5067179;28;20034;-50
2021/11/29 11:39:06;;;;;;;7.60;3.53;;;;;;;;;;5045360;28;20579;-54
2021/11/29 11:41:33;;;;;;;7.72;3.97;;;;;;;;;;5076486;28;20563;-53
2021/11/29 11:44:00;;;;;;;4.18;2.90;;;;;;;;;;5071993;28;20029;-52
2021/11/29 11:46:28;;;;;;;5.97;3.20;;;;;;;;;;5068311;28;20031;-52
2021/11/29 11:48:57;;;;;;;5.68;3.22;;;;;;;;;;5068136;28;20031;-49
2021/11/29 11:51:23;;;;;;;7.28;3.03;;;;;;;;;;5067156;28;20020;-52
2021/11/29 11:53:50;;;;;;;5.40;2.83;;;;;;;;;;5067361;28;20060;-54
2021/11/29 11:56:16;;;;;;;3.17;2.35;;;;;;;;;;5068062;28;20564;-52
2021/11/29 11:58:47;;;;;;;4.47;2.85;;;;;;;;;;5067293;28;20055;-52
2021/11/29 12:01:16;;;;;;;5.80;2.80;;;;;;;;;;5067516;28;20028;-53
2021/11/29 12:03:46;;;;;;;2.45;2.05;;;;;;;;;;5066284;28;20021;-52
2021/11/29 12:06:16;;;;;;;3.42;2.20;;;;;;;;;;5071617;28;20027;-52
2021/11/29 12:08:47;;;;;;;4.30;2.80;;;;;;;;;;5065905;28;20025;-52
2021/11/29 12:11:19;;;;;;;3.65;2.70;;;;;;;;;;5066517;28;20029;-52
2021/11/29 12:13:45;;;;;;;3.53;2.50;;;;;;;;;;5065124;28;20051;-53
2021/11/29 12:16:12;;;;;;;3.78;2.55;;;;;;;;;;5064824;28;20052;-51
2021/11/29 12:18:41;;;;;;;4.85;2.65;;;;;;;;;;5065481;28;20028;-52
2021/11/29 12:21:12;;;;;;;7.78;3.70;;;;;;;;;;5065998;28;20044;-53
2021/11/29 12:23:45;;;;;;;12.73;5.03;;;;;;;;;;5070697;28;20098;-52
2021/11/29 12:26:11;;;;;;;17.50;6.50;;;;;;;;;;5065599;28;20090;-53
2021/11/29 12:28:39;;;;;;;16.85;7.13;;;;;;;;;;5050362;28;20487;-51
2021/11/29 12:31:25;;;;;;;17.27;6.78;;;;;;;;;;5065304;28;20487;-52
2021/11/29 12:33:53;;;;;;;20.40;8.00;;;;;;;;;;5064791;28;20078;-51
2021/11/29 12:36:21;;;;;;;24.17;8.52;;;;;;;;;;5063952;28;20510;-52
2021/11/29 12:38:49;;;;;;;23.55;8.70;;;;;;;;;;5065007;28;20025;-51
2021/11/29 12:41:34;;;;;;;19.75;8.52;;;;;;;;;;5065333;28;20115;-49
2021/11/29 12:44:00;;;;;;;24.38;9.63;;;;;;;;;;5065643;28;20410;-49
2021/11/29 12:46:26;;;;;;;20.00;8.38;;;;;;;;;;5064950;28;20115;-50
2021/11/29 12:48:54;;;;;;;15.80;6.80;;;;;;;;;;5065110;28;20394;-52
2021/11/29 12:51:39;;;;;;;11.60;5.60;;;;;;;;;;5064833;28;20033;-50
2021/11/29 12:54:25;;;;;;;9.82;5.32;;;;;;;;;;5063744;28;20024;-50
2021/11/29 12:57:11;;;;;;;9.80;4.30;;;;;;;;;;5062495;28;20406;-52
2021/11/29 12:59:53;;;;;;;6.78;3.67;;;;;;;;;;5065963;28;20032;-50
2021/11/29 13:02:38;;;;;;;8.90;4.03;;;;;;;;;;5064223;28;20032;-51
2021/11/29 13:05:24;;;;;;;7.68;3.70;;;;;;;;;;5064046;28;20033;-52
2021/11/29 13:08:07;;;;;;;7.90;3.50;;;;;;;;;;5004639;28;20045;-50
2021/11/29 13:10:52;;;;;;;4.00;2.65;;;;;;;;;;5062080;28;20063;-53
2021/11/29 13:13:26;;;;;;;4.53;2.63;;;;;;;;;;5063663;28;20029;-52
2021/11/29 13:15:53;;;;;;;6.27;3.50;;;;;;;;;;5065436;28;20456;-52
2021/11/29 13:18:38;;;;;;;9.00;3.40;;;;;;;;;;5063937;28;20066;-49
2021/11/29 13:21:04;;;;;;;8.48;4.00;;;;;;;;;;5066003;28;20491;-53
2021/11/29 13:23:31;;;;;;;7.90;4.47;;;;;;;;;;5064644;28;20405;-50
2021/11/29 13:26:04;;;;;;;8.82;4.13;;;;;;;;;;5062758;28;20028;-51
2021/11/29 13:28:30;;;;;;;10.02;4.82;;;;;;;;;;5064377;28;20540;-53
2021/11/29 13:30:56;;;;;;;7.00;3.83;;;;;;;;;;5064135;28;20407;-50
2021/11/29 13:33:22;;;;;;;6.78;3.55;;;;;;;;;;5063197;28;20380;-53
2021/11/29 13:35:48;;;;;;;7.07;4.10;;;;;;;;;;5061982;28;20060;-52
2021/11/29 13:38:15;;;;;;;5.60;3.40;;;;;;;;;;5067676;28;20020;-53
2021/11/29 13:40:41;;;;;;;4.55;3.00;;;;;;;;;;5066218;28;20514;-53
2021/11/29 13:43:07;;;;;;;4.95;2.78;;;;;;;;;;5070142;28;20031;-51
2021/11/29 13:45:38;;;;;;;5.90;2.83;;;;;;;;;;5066507;28;20101;-52
2021/11/29 13:48:05;;;;;;;3.35;2.30;;;;;;;;;;5069682;28;20070;-52
2021/11/29 13:50:33;;;;;;;4.82;2.50;;;;;;;;;;5065665;28;20028;-52
2021/11/29 13:53:07;;;;;;;3.42;1.80;;;;;;;;;;5069674;28;20025;-52
2021/11/29 13:55:37;;;;;;;3.63;2.00;;;;;;;;;;5059096;28;20032;-53
2021/11/29 13:58:10;;;;;;;4.47;2.40;;;;;;;;;;5082152;28;20028;-52
2021/11/29 14:00:37;;;;;;;4.53;2.10;;;;;;;;;;5065051;28;20094;-51
2021/11/29 14:03:03;;;;;;;2.40;1.60;;;;;;;;;;5068305;28;20024;-50
2021/11/29 14:05:33;;;;;;;3.00;1.60;;;;;;;;;;5067461;28;20097;-49
2021/11/29 14:08:03;;;;;;;2.33;1.70;;;;;;;;;;5069144;28;20032;-52
2021/11/29 14:10:34;;;;;;;1.80;1.60;;;;;;;;;;5071363;28;20074;-51
2021/11/29 14:13:00;;;;;;;1.90;1.70;;;;;;;;;;5069196;28;20025;-51
2021/11/29 14:15:30;;;;;;;2.72;1.70;;;;;;;;;;5063260;28;20020;-51
2021/11/29 14:17:58;;;;;;;2.28;1.52;;;;;;;;;;5066325;28;20403;-52
2021/11/29 14:20:26;;;;;;;2.70;1.50;;;;;;;;;;5068368;28;20096;-51
2021/11/29 14:22:52;;;;;;;2.72;1.50;;;;;;;;;;5068835;28;20402;-52
2021/11/29 14:25:20;;;;;;;2.10;1.27;;;;;;;;;;5065894;28;20025;-50
2021/11/29 14:27:46;;;;;;;2.28;1.38;;;;;;;;;;5068372;28;20074;-53
2021/11/29 14:30:15;;;;;;;1.67;1.30;;;;;;;;;;5062853;28;20035;-53
2021/11/29 14:32:41;;;;;;;2.63;1.33;;;;;;;;;;5068832;28;20433;-52
2021/11/29 14:35:10;;;;;;;1.73;1.45;;;;;;;;;;5062504;28;20477;-53
2021/11/29 14:37:38;;;;;;;2.15;1.48;;;;;;;;;;5064624;28;20108;-53
2021/11/29 14:40:05;;;;;;;2.88;1.58;;;;;;;;;;5062889;28;20020;-53
2021/11/29 14:42:42;;;;;;;3.22;1.92;;;;;;;;;;5067896;28;20040;-52
2021/11/29 14:45:19;;;;;;;4.05;2.08;;;;;;;;;;5061964;28;20067;-52